sensor_id;sensor_type;location;lat;lon;timestamp;temperature;humidity
21770;DHT22;11046;49.558;8.674;2024-01-15T00:02:09;-2.40;99.70
21770;DHT22;11046;49.558;8.674;2024-01-15T00:05:10;-2.50;99.80
21770;DHT22;11046;49.558;8.674;2024-01-15T00:08:13;-2.50;99.70
21770;DHT22;11046;49.558;8.674;2024-01-15T00:11:14;-2.50;99.80
21770;DHT22;11046;49.558;8.674;2024-01-15T00:14:15;-2.50;99.80
21770;DHT22;11046;49.558;8.674;2024-01-15T00:17:22;-2.40;99.80
21770;DHT22;11046;49.558;8.674;2024-01-15T00:20:26;-2.40;99.80
21770;DHT22;11046;49.558;8.674;2024-01-15T00:23:29;-2.40;99.80
21770;DHT22;11046;49.558;8.674;2024-01-15T00:26:30;-2.50;99.80
21770;DHT22;11046;49.558;8.674;2024-01-15T00:29:33;-2.50;99.90
21770;DHT22;11046;49.558;8.674;2024-01-15T00:32:36;-2.50;99.90
21770;DHT22;11046;49.558;8.674;2024-01-15T00:35:42;-2.50;99.90
21770;DHT22;11046;49.558;8.674;2024-01-15T00:38:45;-2.40;99.90
21770;DHT22;11046;49.558;8.674;2024-01-15T00:41:50;-2.40;99.90
21770;DHT22;11046;49.558;8.674;2024-01-15T00:44:50;-2.40;99.90
21770;DHT22;11046;49.558;8.674;2024-01-15T00:47:51;-2.30;99.90
21770;DHT22;11046;49.558;8.674;2024-01-15T00:50:52;-2.30;99.90
21770;DHT22;11046;49.558;8.674;2024-01-15T00:53:55;-2.40;99.90
21770;DHT22;11046;49.558;8.674;2024-01-15T00:56:58;-2.40;99.90
21770;DHT22;11046;49.558;8.674;2024-01-15T00:59:59;-2.40;99.90
21770;DHT22;11046;49.558;8.674;2024-01-15T01:03:00;-2.40;99.90
21770;DHT22;11046;49.558;8.674;2024-01-15T01:06:00;-2.40;99.90
21770;DHT22;11046;49.558;8.674;2024-01-15T01:09:01;-2.50;99.90
21770;DHT22;11046;49.558;8.674;2024-01-15T01:12:02;-2.40;99.90
21770;DHT22;11046;49.558;8.674;2024-01-15T01:15:06;-2.50;99.90
21770;DHT22;11046;49.558;8.674;2024-01-15T01:18:07;-2.40;99.90
21770;DHT22;11046;49.558;8.674;2024-01-15T01:21:07;-2.40;99.90
21770;DHT22;11046;49.558;8.674;2024-01-15T01:24:08;-2.40;99.90
21770;DHT22;11046;49.558;8.674;2024-01-15T01:27:09;-2.40;99.90
21770;DHT22;11046;49.558;8.674;2024-01-15T01:30:10;-2.40;99.90
21770;DHT22;11046;49.558;8.674;2024-01-15T01:33:10;-2.40;99.90
21770;DHT22;11046;49.558;8.674;2024-01-15T01:36:13;-2.40;99.90
21770;DHT22;11046;49.558;8.674;2024-01-15T01:39:14;-2.40;99.90
21770;DHT22;11046;49.558;8.674;2024-01-15T01:42:15;-2.40;99.90
21770;DHT22;11046;49.558;8.674;2024-01-15T01:45:16;-2.40;99.90
21770;DHT22;11046;49.558;8.674;2024-01-15T01:48:19;-2.40;99.90
21770;DHT22;11046;49.558;8.674;2024-01-15T01:51:24;-2.30;99.90
21770;DHT22;11046;49.558;8.674;2024-01-15T01:54:32;-2.30;99.90
21770;DHT22;11046;49.558;8.674;2024-01-15T01:57:34;-2.40;99.90
21770;DHT22;11046;49.558;8.674;2024-01-15T02:00:36;-2.40;99.90
21770;DHT22;11046;49.558;8.674;2024-01-15T02:03:36;-2.30;99.90
21770;DHT22;11046;49.558;8.674;2024-01-15T02:06:37;-2.30;99.90
21770;DHT22;11046;49.558;8.674;2024-01-15T02:09:38;-2.30;99.90
21770;DHT22;11046;49.558;8.674;2024-01-15T02:12:38;-2.20;99.90
21770;DHT22;11046;49.558;8.674;2024-01-15T02:15:40;-2.10;99.90
21770;DHT22;11046;49.558;8.674;2024-01-15T02:18:45;-2.10;99.90
21770;DHT22;11046;49.558;8.674;2024-01-15T02:21:45;-2.10;99.90
21770;DHT22;11046;49.558;8.674;2024-01-15T02:24:46;-2.10;99.90
21770;DHT22;11046;49.558;8.674;2024-01-15T02:27:47;-2.10;99.90
21770;DHT22;11046;49.558;8.674;2024-01-15T02:30:48;-2.10;99.90
21770;DHT22;11046;49.558;8.674;2024-01-15T02:33:48;-2.10;99.90
21770;DHT22;11046;49.558;8.674;2024-01-15T02:36:49;-2.10;99.90
21770;DHT22;11046;49.558;8.674;2024-01-15T02:39:49;-2.10;99.90
21770;DHT22;11046;49.558;8.674;2024-01-15T02:46:07;-2.00;99.90
21770;DHT22;11046;49.558;8.674;2024-01-15T02:49:07;-2.10;99.90
21770;DHT22;11046;49.558;8.674;2024-01-15T02:52:08;-2.00;99.90
21770;DHT22;11046;49.558;8.674;2024-01-15T02:55:09;-2.00;99.90
21770;DHT22;11046;49.558;8.674;2024-01-15T02:58:09;-2.00;99.90
21770;DHT22;11046;49.558;8.674;2024-01-15T03:01:10;-1.90;99.90
21770;DHT22;11046;49.558;8.674;2024-01-15T03:04:10;-2.00;99.90
21770;DHT22;11046;49.558;8.674;2024-01-15T03:07:11;-2.00;99.90
21770;DHT22;11046;49.558;8.674;2024-01-15T03:10:12;-1.90;99.90
21770;DHT22;11046;49.558;8.674;2024-01-15T03:13:12;-2.00;99.90
21770;DHT22;11046;49.558;8.674;2024-01-15T03:16:13;-2.00;99.90
21770;DHT22;11046;49.558;8.674;2024-01-15T03:19:14;-1.90;99.90
21770;DHT22;11046;49.558;8.674;2024-01-15T03:22:14;-2.00;99.90
21770;DHT22;11046;49.558;8.674;2024-01-15T03:25:15;-2.00;99.90
21770;DHT22;11046;49.558;8.674;2024-01-15T03:28:16;-2.00;99.90
21770;DHT22;11046;49.558;8.674;2024-01-15T03:31:16;-2.10;99.90
21770;DHT22;11046;49.558;8.674;2024-01-15T03:34:17;-2.10;99.90
21770;DHT22;11046;49.558;8.674;2024-01-15T03:37:17;-2.10;99.90
21770;DHT22;11046;49.558;8.674;2024-01-15T03:40:18;-2.10;99.90
21770;DHT22;11046;49.558;8.674;2024-01-15T03:43:19;-2.10;99.90
21770;DHT22;11046;49.558;8.674;2024-01-15T03:46:19;-2.10;99.90
21770;DHT22;11046;49.558;8.674;2024-01-15T03:49:20;-2.10;99.90
21770;DHT22;11046;49.558;8.674;2024-01-15T03:52:20;-2.00;99.90
21770;DHT22;11046;49.558;8.674;2024-01-15T03:55:21;-2.00;99.90
21770;DHT22;11046;49.558;8.674;2024-01-15T03:58:21;-2.00;99.90
21770;DHT22;11046;49.558;8.674;2024-01-15T04:01:22;-2.00;99.90
21770;DHT22;11046;49.558;8.674;2024-01-15T04:04:23;-2.00;99.90
21770;DHT22;11046;49.558;8.674;2024-01-15T04:07:23;-2.10;99.90
21770;DHT22;11046;49.558;8.674;2024-01-15T04:10:24;-2.00;99.90
21770;DHT22;11046;49.558;8.674;2024-01-15T04:13:24;-2.00;99.90
21770;DHT22;11046;49.558;8.674;2024-01-15T04:16:25;-2.00;99.90
21770;DHT22;11046;49.558;8.674;2024-01-15T04:19:26;-2.10;99.90
21770;DHT22;11046;49.558;8.674;2024-01-15T04:22:27;-2.00;99.90
21770;DHT22;11046;49.558;8.674;2024-01-15T04:25:27;-2.10;99.90
21770;DHT22;11046;49.558;8.674;2024-01-15T04:28:28;-2.10;99.90
21770;DHT22;11046;49.558;8.674;2024-01-15T04:31:28;-2.10;99.90
21770;DHT22;11046;49.558;8.674;2024-01-15T04:34:29;-2.00;99.90
21770;DHT22;11046;49.558;8.674;2024-01-15T04:37:29;-2.00;99.90
21770;DHT22;11046;49.558;8.674;2024-01-15T04:40:30;-2.00;99.90
21770;DHT22;11046;49.558;8.674;2024-01-15T04:43:31;-2.00;99.90
21770;DHT22;11046;49.558;8.674;2024-01-15T04:46:31;-1.90;99.90
21770;DHT22;11046;49.558;8.674;2024-01-15T04:49:32;-1.90;99.90
21770;DHT22;11046;49.558;8.674;2024-01-15T04:52:32;-1.90;99.90
21770;DHT22;11046;49.558;8.674;2024-01-15T04:55:33;-1.90;99.90
21770;DHT22;11046;49.558;8.674;2024-01-15T04:58:33;-1.90;99.90
21770;DHT22;11046;49.558;8.674;2024-01-15T05:01:34;-1.80;99.90
21770;DHT22;11046;49.558;8.674;2024-01-15T05:04:35;-1.80;99.90
21770;DHT22;11046;49.558;8.674;2024-01-15T05:07:36;-1.80;99.90
21770;DHT22;11046;49.558;8.674;2024-01-15T05:10:37;-1.70;99.90
21770;DHT22;11046;49.558;8.674;2024-01-15T05:13:37;-1.70;99.90
21770;DHT22;11046;49.558;8.674;2024-01-15T05:16:39;-1.70;99.90
21770;DHT22;11046;49.558;8.674;2024-01-15T05:19:39;-1.70;99.90
21770;DHT22;11046;49.558;8.674;2024-01-15T05:22:40;-1.70;99.90
21770;DHT22;11046;49.558;8.674;2024-01-15T05:25:40;-1.70;99.90
21770;DHT22;11046;49.558;8.674;2024-01-15T05:28:42;-1.70;99.90
21770;DHT22;11046;49.558;8.674;2024-01-15T05:31:43;-1.70;99.90
21770;DHT22;11046;49.558;8.674;2024-01-15T05:34:43;-1.70;99.90
21770;DHT22;11046;49.558;8.674;2024-01-15T05:37:45;-1.70;99.90
21770;DHT22;11046;49.558;8.674;2024-01-15T05:40:46;-1.70;99.90
21770;DHT22;11046;49.558;8.674;2024-01-15T05:43:46;-1.70;99.90
21770;DHT22;11046;49.558;8.674;2024-01-15T05:46:47;-1.60;99.90
21770;DHT22;11046;49.558;8.674;2024-01-15T05:49:47;-1.60;99.90
21770;DHT22;11046;49.558;8.674;2024-01-15T05:52:48;-1.70;99.90
21770;DHT22;11046;49.558;8.674;2024-01-15T05:55:49;-1.60;99.90
21770;DHT22;11046;49.558;8.674;2024-01-15T05:58:49;-1.60;99.90
21770;DHT22;11046;49.558;8.674;2024-01-15T06:01:50;-1.60;99.90
21770;DHT22;11046;49.558;8.674;2024-01-15T06:04:51;-1.60;99.90
21770;DHT22;11046;49.558;8.674;2024-01-15T06:07:51;-1.60;99.90
21770;DHT22;11046;49.558;8.674;2024-01-15T06:10:52;-1.60;99.90
21770;DHT22;11046;49.558;8.674;2024-01-15T06:13:52;-1.60;99.90
21770;DHT22;11046;49.558;8.674;2024-01-15T06:16:53;-1.50;99.90
21770;DHT22;11046;49.558;8.674;2024-01-15T06:19:53;-1.50;99.90
21770;DHT22;11046;49.558;8.674;2024-01-15T06:22:54;-1.50;99.90
21770;DHT22;11046;49.558;8.674;2024-01-15T06:25:55;-1.50;99.90
21770;DHT22;11046;49.558;8.674;2024-01-15T06:28:55;-1.60;99.90
21770;DHT22;11046;49.558;8.674;2024-01-15T06:31:56;-1.60;99.90
21770;DHT22;11046;49.558;8.674;2024-01-15T06:34:56;-1.60;99.90
21770;DHT22;11046;49.558;8.674;2024-01-15T06:37:57;-1.60;99.90
21770;DHT22;11046;49.558;8.674;2024-01-15T06:40:57;-1.60;99.90
21770;DHT22;11046;49.558;8.674;2024-01-15T06:43:58;-1.50;99.90
21770;DHT22;11046;49.558;8.674;2024-01-15T06:46:59;-1.50;99.90
21770;DHT22;11046;49.558;8.674;2024-01-15T06:50:02;-1.50;99.90
21770;DHT22;11046;49.558;8.674;2024-01-15T06:53:05;-1.40;99.90
21770;DHT22;11046;49.558;8.674;2024-01-15T06:56:05;-1.40;99.90
21770;DHT22;11046;49.558;8.674;2024-01-15T06:59:06;-1.40;99.90
21770;DHT22;11046;49.558;8.674;2024-01-15T07:02:07;-1.30;99.90
21770;DHT22;11046;49.558;8.674;2024-01-15T07:05:07;-1.30;99.90
21770;DHT22;11046;49.558;8.674;2024-01-15T07:08:08;-1.30;99.90
21770;DHT22;11046;49.558;8.674;2024-01-15T07:11:09;-1.30;99.90
21770;DHT22;11046;49.558;8.674;2024-01-15T07:14:10;-1.30;99.90
21770;DHT22;11046;49.558;8.674;2024-01-15T07:17:11;-1.20;99.90
21770;DHT22;11046;49.558;8.674;2024-01-15T07:20:11;-1.20;99.90
21770;DHT22;11046;49.558;8.674;2024-01-15T07:23:12;-1.20;99.90
21770;DHT22;11046;49.558;8.674;2024-01-15T07:26:12;-1.30;99.90
21770;DHT22;11046;49.558;8.674;2024-01-15T07:29:13;-1.20;99.90
21770;DHT22;11046;49.558;8.674;2024-01-15T07:32:13;-1.10;99.90
21770;DHT22;11046;49.558;8.674;2024-01-15T07:35:14;-1.10;99.90
21770;DHT22;11046;49.558;8.674;2024-01-15T07:38:15;-1.00;99.90
21770;DHT22;11046;49.558;8.674;2024-01-15T07:41:16;-1.10;99.90
21770;DHT22;11046;49.558;8.674;2024-01-15T07:44:17;-1.00;99.90
21770;DHT22;11046;49.558;8.674;2024-01-15T07:47:17;-1.10;99.90
21770;DHT22;11046;49.558;8.674;2024-01-15T07:50:19;-1.00;99.90
21770;DHT22;11046;49.558;8.674;2024-01-15T07:53:20;-1.00;99.90
21770;DHT22;11046;49.558;8.674;2024-01-15T07:56:20;-1.10;99.90
21770;DHT22;11046;49.558;8.674;2024-01-15T07:59:21;-1.00;99.90
21770;DHT22;11046;49.558;8.674;2024-01-15T08:02:22;-0.90;99.90
21770;DHT22;11046;49.558;8.674;2024-01-15T08:05:23;-0.90;99.90
21770;DHT22;11046;49.558;8.674;2024-01-15T08:08:23;-0.90;99.90
21770;DHT22;11046;49.558;8.674;2024-01-15T08:11:24;-0.80;99.90
21770;DHT22;11046;49.558;8.674;2024-01-15T08:14:25;-0.80;99.90
21770;DHT22;11046;49.558;8.674;2024-01-15T08:17:25;-0.80;99.90
21770;DHT22;11046;49.558;8.674;2024-01-15T08:20:28;-0.80;99.90
21770;DHT22;11046;49.558;8.674;2024-01-15T08:23:29;-0.80;99.90
21770;DHT22;11046;49.558;8.674;2024-01-15T08:26:31;-0.70;99.90
21770;DHT22;11046;49.558;8.674;2024-01-15T08:29:35;-0.60;99.90
21770;DHT22;11046;49.558;8.674;2024-01-15T08:32:35;-0.70;99.90
21770;DHT22;11046;49.558;8.674;2024-01-15T08:35:41;-0.70;99.90
21770;DHT22;11046;49.558;8.674;2024-01-15T08:38:41;-0.80;99.90
21770;DHT22;11046;49.558;8.674;2024-01-15T08:41:42;-0.80;99.90
21770;DHT22;11046;49.558;8.674;2024-01-15T08:44:42;-0.70;99.90
21770;DHT22;11046;49.558;8.674;2024-01-15T08:47:44;-0.80;99.90
21770;DHT22;11046;49.558;8.674;2024-01-15T08:50:44;-0.70;99.90
21770;DHT22;11046;49.558;8.674;2024-01-15T08:53:46;-0.70;99.90
21770;DHT22;11046;49.558;8.674;2024-01-15T08:56:46;-0.60;99.90
21770;DHT22;11046;49.558;8.674;2024-01-15T08:59:47;-0.50;99.90
21770;DHT22;11046;49.558;8.674;2024-01-15T09:02:48;-0.40;99.90
21770;DHT22;11046;49.558;8.674;2024-01-15T09:05:48;-0.40;99.90
21770;DHT22;11046;49.558;8.674;2024-01-15T09:08:50;-0.50;99.90
21770;DHT22;11046;49.558;8.674;2024-01-15T09:11:51;-0.40;99.90
21770;DHT22;11046;49.558;8.674;2024-01-15T09:14:52;-0.40;99.90
21770;DHT22;11046;49.558;8.674;2024-01-15T09:17:54;-0.30;99.90
21770;DHT22;11046;49.558;8.674;2024-01-15T09:20:54;-0.40;99.90
21770;DHT22;11046;49.558;8.674;2024-01-15T09:23:55;-0.40;99.90
21770;DHT22;11046;49.558;8.674;2024-01-15T09:26:55;-0.50;99.90
21770;DHT22;11046;49.558;8.674;2024-01-15T09:29:56;-0.50;99.90
21770;DHT22;11046;49.558;8.674;2024-01-15T09:32:56;-0.50;99.90
21770;DHT22;11046;49.558;8.674;2024-01-15T09:36:00;-0.50;99.90
21770;DHT22;11046;49.558;8.674;2024-01-15T09:39:01;-0.50;99.90
21770;DHT22;11046;49.558;8.674;2024-01-15T09:42:02;-0.40;99.90
21770;DHT22;11046;49.558;8.674;2024-01-15T09:45:03;-0.50;99.90
21770;DHT22;11046;49.558;8.674;2024-01-15T09:48:04;-0.40;99.90
21770;DHT22;11046;49.558;8.674;2024-01-15T09:51:06;-0.50;99.90
21770;DHT22;11046;49.558;8.674;2024-01-15T09:54:08;-0.50;99.90
21770;DHT22;11046;49.558;8.674;2024-01-15T09:57:09;-0.50;99.90
21770;DHT22;11046;49.558;8.674;2024-01-15T10:00:10;-0.50;99.90
21770;DHT22;11046;49.558;8.674;2024-01-15T10:03:11;-0.50;99.90
21770;DHT22;11046;49.558;8.674;2024-01-15T10:06:17;-0.40;99.90
21770;DHT22;11046;49.558;8.674;2024-01-15T10:09:18;-0.40;99.90
21770;DHT22;11046;49.558;8.674;2024-01-15T10:12:20;-0.30;99.90
21770;DHT22;11046;49.558;8.674;2024-01-15T10:15:26;-0.40;99.90
21770;DHT22;11046;49.558;8.674;2024-01-15T10:18:26;-0.40;99.90
21770;DHT22;11046;49.558;8.674;2024-01-15T10:21:27;-0.40;99.90
21770;DHT22;11046;49.558;8.674;2024-01-15T10:24:28;-0.40;99.90
21770;DHT22;11046;49.558;8.674;2024-01-15T10:27:29;-0.30;99.90
21770;DHT22;11046;49.558;8.674;2024-01-15T10:30:30;-0.30;99.90
21770;DHT22;11046;49.558;8.674;2024-01-15T10:33:32;-0.20;99.90
21770;DHT22;11046;49.558;8.674;2024-01-15T10:36:32;-0.20;99.90
21770;DHT22;11046;49.558;8.674;2024-01-15T10:39:33;-0.30;99.90
21770;DHT22;11046;49.558;8.674;2024-01-15T10:42:33;-0.20;99.90
21770;DHT22;11046;49.558;8.674;2024-01-15T10:45:34;-0.20;99.90
21770;DHT22;11046;49.558;8.674;2024-01-15T10:48:35;-0.20;99.90
21770;DHT22;11046;49.558;8.674;2024-01-15T10:51:36;-0.30;99.90
21770;DHT22;11046;49.558;8.674;2024-01-15T10:54:37;-0.20;99.90
21770;DHT22;11046;49.558;8.674;2024-01-15T10:57:39;-0.20;99.90
21770;DHT22;11046;49.558;8.674;2024-01-15T11:00:39;-0.20;99.90
21770;DHT22;11046;49.558;8.674;2024-01-15T11:03:40;-0.30;99.90
21770;DHT22;11046;49.558;8.674;2024-01-15T11:06:48;-0.30;99.90
21770;DHT22;11046;49.558;8.674;2024-01-15T11:09:50;-0.20;99.90
21770;DHT22;11046;49.558;8.674;2024-01-15T11:12:50;-0.30;99.90
21770;DHT22;11046;49.558;8.674;2024-01-15T11:21:59;-0.30;99.90
21770;DHT22;11046;49.558;8.674;2024-01-15T11:25:15;-0.20;99.90
21770;DHT22;11046;49.558;8.674;2024-01-15T11:28:48;-0.20;99.90
21770;DHT22;11046;49.558;8.674;2024-01-15T11:40:52;-0.10;99.90
21770;DHT22;11046;49.558;8.674;2024-01-15T11:43:52;-0.10;99.90
21770;DHT22;11046;49.558;8.674;2024-01-15T11:50:01;0.00;99.90
21770;DHT22;11046;49.558;8.674;2024-01-15T11:53:03;-0.10;99.90
21770;DHT22;11046;49.558;8.674;2024-01-15T11:56:15;-0.10;99.90
21770;DHT22;11046;49.558;8.674;2024-01-15T11:59:17;-0.20;99.90
21770;DHT22;11046;49.558;8.674;2024-01-15T12:02:17;-0.20;99.90
21770;DHT22;11046;49.558;8.674;2024-01-15T12:05:19;-0.10;99.90
21770;DHT22;11046;49.558;8.674;2024-01-15T12:08:24;0.00;99.90
21770;DHT22;11046;49.558;8.674;2024-01-15T12:11:26;0.10;99.90
21770;DHT22;11046;49.558;8.674;2024-01-15T12:14:28;0.10;99.90
21770;DHT22;11046;49.558;8.674;2024-01-15T12:17:29;0.10;99.90
21770;DHT22;11046;49.558;8.674;2024-01-15T12:20:31;0.00;99.90
21770;DHT22;11046;49.558;8.674;2024-01-15T12:23:33;-0.10;99.90
21770;DHT22;11046;49.558;8.674;2024-01-15T12:26:34;0.00;99.90
21770;DHT22;11046;49.558;8.674;2024-01-15T12:29:34;0.00;99.90
21770;DHT22;11046;49.558;8.674;2024-01-15T12:32:35;0.20;99.90
21770;DHT22;11046;49.558;8.674;2024-01-15T12:35:36;0.20;99.90
21770;DHT22;11046;49.558;8.674;2024-01-15T12:38:37;0.30;99.90
21770;DHT22;11046;49.558;8.674;2024-01-15T12:41:39;0.30;99.90
21770;DHT22;11046;49.558;8.674;2024-01-15T12:44:39;0.30;99.90
21770;DHT22;11046;49.558;8.674;2024-01-15T12:47:41;0.40;99.90
21770;DHT22;11046;49.558;8.674;2024-01-15T12:50:43;0.50;99.90
21770;DHT22;11046;49.558;8.674;2024-01-15T12:53:44;0.60;99.90
21770;DHT22;11046;49.558;8.674;2024-01-15T12:56:44;0.60;99.90
21770;DHT22;11046;49.558;8.674;2024-01-15T12:59:45;0.70;99.90
21770;DHT22;11046;49.558;8.674;2024-01-15T13:02:46;0.70;99.90
21770;DHT22;11046;49.558;8.674;2024-01-15T13:05:47;0.70;99.90
21770;DHT22;11046;49.558;8.674;2024-01-15T13:08:47;0.70;99.90
21770;DHT22;11046;49.558;8.674;2024-01-15T13:11:48;0.70;99.90
21770;DHT22;11046;49.558;8.674;2024-01-15T13:14:49;0.60;99.90
21770;DHT22;11046;49.558;8.674;2024-01-15T13:17:49;0.60;99.90
21770;DHT22;11046;49.558;8.674;2024-01-15T13:20:50;0.70;99.90
21770;DHT22;11046;49.558;8.674;2024-01-15T13:23:51;0.60;99.90
21770;DHT22;11046;49.558;8.674;2024-01-15T13:26:51;0.60;99.90
21770;DHT22;11046;49.558;8.674;2024-01-15T13:29:52;0.60;99.90
21770;DHT22;11046;49.558;8.674;2024-01-15T13:32:53;0.70;99.90
21770;DHT22;11046;49.558;8.674;2024-01-15T13:35:54;0.70;99.90
21770;DHT22;11046;49.558;8.674;2024-01-15T13:38:55;0.70;99.90
21770;DHT22;11046;49.558;8.674;2024-01-15T13:41:55;0.70;99.90
21770;DHT22;11046;49.558;8.674;2024-01-15T13:44:56;0.70;99.90
21770;DHT22;11046;49.558;8.674;2024-01-15T13:47:57;0.80;99.90
21770;DHT22;11046;49.558;8.674;2024-01-15T13:50:58;0.80;99.90
21770;DHT22;11046;49.558;8.674;2024-01-15T13:53:59;0.80;99.90
21770;DHT22;11046;49.558;8.674;2024-01-15T13:57:00;0.80;99.90
21770;DHT22;11046;49.558;8.674;2024-01-15T14:00:01;0.80;99.90
21770;DHT22;11046;49.558;8.674;2024-01-15T14:03:02;0.70;99.90
21770;DHT22;11046;49.558;8.674;2024-01-15T14:06:04;0.70;99.90
21770;DHT22;11046;49.558;8.674;2024-01-15T14:09:09;0.70;99.90
21770;DHT22;11046;49.558;8.674;2024-01-15T14:12:10;0.80;99.90
21770;DHT22;11046;49.558;8.674;2024-01-15T14:15:12;1.00;99.90
21770;DHT22;11046;49.558;8.674;2024-01-15T14:18:12;0.90;99.90
21770;DHT22;11046;49.558;8.674;2024-01-15T14:21:13;0.90;99.90
21770;DHT22;11046;49.558;8.674;2024-01-15T14:24:13;1.00;99.90
21770;DHT22;11046;49.558;8.674;2024-01-15T14:27:15;0.90;99.90
21770;DHT22;11046;49.558;8.674;2024-01-15T14:30:16;0.90;99.90
21770;DHT22;11046;49.558;8.674;2024-01-15T14:33:16;1.00;99.90
21770;DHT22;11046;49.558;8.674;2024-01-15T14:36:17;0.90;99.90
21770;DHT22;11046;49.558;8.674;2024-01-15T14:39:18;0.90;99.90
21770;DHT22;11046;49.558;8.674;2024-01-15T14:42:19;0.90;99.90
21770;DHT22;11046;49.558;8.674;2024-01-15T14:45:19;0.90;99.90
21770;DHT22;11046;49.558;8.674;2024-01-15T14:48:20;0.90;99.90
21770;DHT22;11046;49.558;8.674;2024-01-15T14:51:21;1.00;99.90
21770;DHT22;11046;49.558;8.674;2024-01-15T14:54:21;0.90;99.90
21770;DHT22;11046;49.558;8.674;2024-01-15T14:57:22;0.90;99.90
21770;DHT22;11046;49.558;8.674;2024-01-15T15:00:23;1.00;99.90
21770;DHT22;11046;49.558;8.674;2024-01-15T15:03:24;1.00;99.90
21770;DHT22;11046;49.558;8.674;2024-01-15T15:06:24;1.10;99.90
21770;DHT22;11046;49.558;8.674;2024-01-15T15:09:28;1.10;99.90
21770;DHT22;11046;49.558;8.674;2024-01-15T15:12:28;1.10;99.90
21770;DHT22;11046;49.558;8.674;2024-01-15T15:15:29;1.00;99.90
21770;DHT22;11046;49.558;8.674;2024-01-15T15:18:30;1.00;99.90
21770;DHT22;11046;49.558;8.674;2024-01-15T15:21:30;1.10;99.90
21770;DHT22;11046;49.558;8.674;2024-01-15T15:24:31;1.10;99.90
21770;DHT22;11046;49.558;8.674;2024-01-15T15:27:31;1.20;99.90
21770;DHT22;11046;49.558;8.674;2024-01-15T15:30:32;1.20;99.90
21770;DHT22;11046;49.558;8.674;2024-01-15T15:33:32;1.20;99.90
21770;DHT22;11046;49.558;8.674;2024-01-15T15:36:33;1.20;99.90
21770;DHT22;11046;49.558;8.674;2024-01-15T15:39:34;1.20;99.90
21770;DHT22;11046;49.558;8.674;2024-01-15T15:42:34;1.20;99.90
21770;DHT22;11046;49.558;8.674;2024-01-15T15:45:35;1.20;99.90
21770;DHT22;11046;49.558;8.674;2024-01-15T15:48:36;1.20;99.90
21770;DHT22;11046;49.558;8.674;2024-01-15T15:51:36;1.20;99.90
21770;DHT22;11046;49.558;8.674;2024-01-15T15:54:38;1.20;99.90
21770;DHT22;11046;49.558;8.674;2024-01-15T15:57:39;1.10;99.90
21770;DHT22;11046;49.558;8.674;2024-01-15T16:00:40;1.00;99.90
21770;DHT22;11046;49.558;8.674;2024-01-15T16:03:41;1.00;99.90
21770;DHT22;11046;49.558;8.674;2024-01-15T16:06:42;0.90;99.90
21770;DHT22;11046;49.558;8.674;2024-01-15T16:09:43;0.90;99.90
21770;DHT22;11046;49.558;8.674;2024-01-15T16:12:43;1.00;99.90
21770;DHT22;11046;49.558;8.674;2024-01-15T16:15:45;1.00;99.90
21770;DHT22;11046;49.558;8.674;2024-01-15T16:18:46;1.00;99.90
21770;DHT22;11046;49.558;8.674;2024-01-15T16:21:46;1.00;99.90
21770;DHT22;11046;49.558;8.674;2024-01-15T16:24:47;0.90;99.90
21770;DHT22;11046;49.558;8.674;2024-01-15T16:27:47;0.90;99.90
21770;DHT22;11046;49.558;8.674;2024-01-15T16:30:48;0.90;99.90
21770;DHT22;11046;49.558;8.674;2024-01-15T16:33:49;0.90;99.90
21770;DHT22;11046;49.558;8.674;2024-01-15T16:36:50;0.90;99.90
21770;DHT22;11046;49.558;8.674;2024-01-15T16:39:50;0.80;99.90
21770;DHT22;11046;49.558;8.674;2024-01-15T16:42:51;0.80;99.90
21770;DHT22;11046;49.558;8.674;2024-01-15T16:45:52;0.80;99.90
21770;DHT22;11046;49.558;8.674;2024-01-15T16:48:52;0.80;99.90
21770;DHT22;11046;49.558;8.674;2024-01-15T16:51:53;0.80;99.90
21770;DHT22;11046;49.558;8.674;2024-01-15T16:54:54;0.80;99.90
21770;DHT22;11046;49.558;8.674;2024-01-15T16:57:54;0.80;99.90
21770;DHT22;11046;49.558;8.674;2024-01-15T17:00:55;0.80;99.90
21770;DHT22;11046;49.558;8.674;2024-01-15T17:03:56;0.80;99.90
21770;DHT22;11046;49.558;8.674;2024-01-15T17:06:56;0.90;99.90
21770;DHT22;11046;49.558;8.674;2024-01-15T17:09:57;0.80;99.90
21770;DHT22;11046;49.558;8.674;2024-01-15T17:12:59;0.80;99.90
21770;DHT22;11046;49.558;8.674;2024-01-15T17:16:04;0.90;99.90
21770;DHT22;11046;49.558;8.674;2024-01-15T17:19:05;0.90;99.90
21770;DHT22;11046;49.558;8.674;2024-01-15T17:22:07;0.80;99.90
21770;DHT22;11046;49.558;8.674;2024-01-15T17:25:08;0.80;99.90
21770;DHT22;11046;49.558;8.674;2024-01-15T17:28:09;0.70;99.90
21770;DHT22;11046;49.558;8.674;2024-01-15T17:31:09;0.70;99.90
21770;DHT22;11046;49.558;8.674;2024-01-15T17:34:10;0.80;99.90
21770;DHT22;11046;49.558;8.674;2024-01-15T17:37:11;0.80;99.90
21770;DHT22;11046;49.558;8.674;2024-01-15T17:40:11;0.80;99.90
21770;DHT22;11046;49.558;8.674;2024-01-15T17:43:12;0.80;99.90
21770;DHT22;11046;49.558;8.674;2024-01-15T17:46:13;0.80;99.90
21770;DHT22;11046;49.558;8.674;2024-01-15T17:49:14;0.80;99.90
21770;DHT22;11046;49.558;8.674;2024-01-15T17:52:15;0.80;99.90
21770;DHT22;11046;49.558;8.674;2024-01-15T17:55:16;0.80;99.90
21770;DHT22;11046;49.558;8.674;2024-01-15T17:58:17;0.70;99.90
21770;DHT22;11046;49.558;8.674;2024-01-15T18:01:18;0.70;99.90
21770;DHT22;11046;49.558;8.674;2024-01-15T18:04:19;0.70;99.90
21770;DHT22;11046;49.558;8.674;2024-01-15T18:07:20;0.70;99.90
21770;DHT22;11046;49.558;8.674;2024-01-15T18:10:21;0.70;99.90
21770;DHT22;11046;49.558;8.674;2024-01-15T18:13:22;0.70;99.90
21770;DHT22;11046;49.558;8.674;2024-01-15T18:16:23;0.70;99.90
21770;DHT22;11046;49.558;8.674;2024-01-15T18:19:24;0.70;99.90
21770;DHT22;11046;49.558;8.674;2024-01-15T18:22:25;0.80;99.90
21770;DHT22;11046;49.558;8.674;2024-01-15T18:25:25;0.70;99.90
21770;DHT22;11046;49.558;8.674;2024-01-15T18:28:26;0.80;99.90
21770;DHT22;11046;49.558;8.674;2024-01-15T18:31:27;0.80;99.90
21770;DHT22;11046;49.558;8.674;2024-01-15T18:34:27;0.70;99.90
21770;DHT22;11046;49.558;8.674;2024-01-15T18:37:28;0.80;99.90
21770;DHT22;11046;49.558;8.674;2024-01-15T18:40:29;0.70;99.90
21770;DHT22;11046;49.558;8.674;2024-01-15T18:43:35;0.70;99.90
21770;DHT22;11046;49.558;8.674;2024-01-15T18:46:35;0.80;99.90
21770;DHT22;11046;49.558;8.674;2024-01-15T18:49:37;0.80;99.90
21770;DHT22;11046;49.558;8.674;2024-01-15T18:52:38;0.80;99.90
21770;DHT22;11046;49.558;8.674;2024-01-15T18:55:38;0.80;99.90
21770;DHT22;11046;49.558;8.674;2024-01-15T18:58:39;0.70;99.90
21770;DHT22;11046;49.558;8.674;2024-01-15T19:01:42;0.70;99.90
21770;DHT22;11046;49.558;8.674;2024-01-15T19:04:44;0.60;99.90
21770;DHT22;11046;49.558;8.674;2024-01-15T19:07:44;0.70;99.90
21770;DHT22;11046;49.558;8.674;2024-01-15T19:10:46;0.80;99.90
21770;DHT22;11046;49.558;8.674;2024-01-15T19:13:48;0.90;99.90
21770;DHT22;11046;49.558;8.674;2024-01-15T19:16:49;0.90;99.90
21770;DHT22;11046;49.558;8.674;2024-01-15T19:19:49;0.80;99.90
21770;DHT22;11046;49.558;8.674;2024-01-15T19:22:51;0.80;99.90
21770;DHT22;11046;49.558;8.674;2024-01-15T19:25:52;0.70;99.90
21770;DHT22;11046;49.558;8.674;2024-01-15T19:28:53;0.70;99.90
21770;DHT22;11046;49.558;8.674;2024-01-15T19:31:54;0.70;99.90
21770;DHT22;11046;49.558;8.674;2024-01-15T19:34:54;0.70;99.90